Girona, Spain
Current Conditions -  °F | °C
As of 10:00 AM on Wednesday 22 Oct 2014 (Local Time) from LEGE Reporting Station
Few Clouds Few Clouds  
Wind Chill: 59°   Ceiling: Unl
Heat Index: 59°   Visibility: 6mi
Dew Point: 43°   Wind: 9mph
Humidity: 55%   Direction: 40°NE
Pressure: 30.21"   Gusts: NA
Location:  41.98°N, 2.82°E
Report Text: LEGE 220800Z 04008KT 9999 FEW025 15/06 Q1023
Loading
Personal Weather Stations






























Interactive Weather Map
Tropical Storm Tracking
New forecast layout! Learn more

10-Day Weather Forecast

Advertisements
Track Severe Weather on mobile